createdAt,value
2018-02-09T00:00:28.620Z,32.35
2018-02-09T00:02:56.090Z,27.77
2018-02-09T00:05:23.552Z,31.02
2018-02-09T00:07:51.015Z,27.20
2018-02-09T00:10:19.290Z,28.40
2018-02-09T00:12:46.799Z,28.60
2018-02-09T00:15:14.304Z,28.98
2018-02-09T00:17:42.550Z,28.98
2018-02-09T00:20:10.123Z,28.25
2018-02-09T00:22:49.577Z,28.42
2018-02-09T00:25:17.812Z,29.70
2018-02-09T00:27:45.275Z,29.10
2018-02-09T00:30:12.750Z,27.13
2018-02-09T00:32:40.215Z,28.50
2018-02-09T00:35:07.679Z,28.60
2018-02-09T00:37:36.214Z,28.20
2018-02-09T00:40:03.711Z,28.25
2018-02-09T00:42:31.143Z,28.65
2018-02-09T00:44:58.644Z,29.00
2018-02-09T00:47:26.894Z,28.12
2018-02-09T00:49:54.363Z,30.60
2018-02-09T00:52:22.679Z,26.48
2018-02-09T00:54:50.144Z,28.17
2018-02-09T00:57:17.642Z,27.92
2018-02-09T00:59:45.125Z,27.75
2018-02-09T01:02:13.373Z,28.42
2018-02-09T01:04:42.353Z,28.73
2018-02-09T01:07:09.844Z,26.70
2018-02-09T01:09:38.100Z,27.75
2018-02-09T01:12:07.081Z,27.83
2018-02-09T01:14:34.545Z,29.58
2018-02-09T01:17:02.124Z,27.45
2018-02-09T01:19:30.360Z,28.33
2018-02-09T01:21:58.041Z,29.65
2018-02-09T01:24:25.714Z,28.17
2018-02-09T01:26:53.181Z,26.35
2018-02-09T01:29:21.446Z,27.23
2018-02-09T01:31:48.908Z,28.90
2018-02-09T01:34:17.141Z,26.75
2018-02-09T01:36:44.625Z,27.02
2018-02-09T01:39:12.186Z,28.33
2018-02-09T01:41:39.744Z,28.73
2018-02-09T01:44:07.304Z,28.80
2018-02-09T01:46:34.861Z,27.42
2018-02-09T01:49:02.351Z,29.15
2018-02-09T01:51:29.840Z,29.70
2018-02-09T01:53:57.333Z,29.83
2018-02-09T01:56:24.814Z,27.75
2018-02-09T01:58:53.057Z,28.70
2018-02-09T02:01:20.629Z,30.42
2018-02-09T02:03:48.105Z,29.67
2018-02-09T02:06:16.385Z,30.33
2018-02-09T02:08:44.640Z,29.52
2018-02-09T02:11:12.117Z,30.52
2018-02-09T02:13:39.587Z,29.12
2018-02-09T02:16:07.237Z,27.85
2018-02-09T02:18:35.477Z,29.27
2018-02-09T02:21:03.197Z,27.42
2018-02-09T02:23:30.673Z,30.70
2018-02-09T02:25:58.143Z,27.98
2018-02-09T02:28:25.615Z,30.20
2018-02-09T02:30:53.850Z,29.80
2018-02-09T02:33:21.425Z,29.95
2018-02-09T02:35:48.892Z,28.60
2018-02-09T02:38:16.379Z,29.25
2018-02-09T02:40:44.622Z,28.70
2018-02-09T02:43:12.092Z,27.60
2018-02-09T02:45:39.567Z,29.10
2018-02-09T02:48:07.062Z,30.42
2018-02-09T02:50:34.550Z,30.65
2018-02-09T02:53:02.032Z,30.58
2018-02-09T02:55:29.501Z,30.02
2018-02-09T02:57:57.745Z,31.90
2018-02-09T03:00:25.223Z,28.58
2018-02-09T03:02:52.698Z,31.25
2018-02-09T03:05:21.002Z,30.65
2018-02-09T03:07:48.523Z,28.90
2018-02-09T03:10:16.767Z,31.00
2018-02-09T03:12:44.249Z,31.37
2018-02-09T03:15:12.541Z,31.30
2018-02-09T03:17:40.793Z,32.00
2018-02-09T03:20:08.286Z,29.85
2018-02-09T03:22:35.761Z,30.20
2018-02-09T03:25:03.385Z,30.33
2018-02-09T03:27:31.620Z,29.70
2018-02-09T03:29:59.214Z,28.55
2018-02-09T03:32:27.456Z,32.63
2018-02-09T03:34:54.949Z,31.17
2018-02-09T03:37:22.430Z,31.83
2018-02-09T03:39:50.050Z,31.05
2018-02-09T03:42:17.518Z,32.55
2018-02-09T03:44:45.779Z,32.65
2018-02-09T03:47:14.043Z,30.70
2018-02-09T03:49:41.647Z,31.62
2018-02-09T03:52:09.885Z,31.30
2018-02-09T03:54:37.461Z,32.05
2018-02-09T03:57:05.719Z,31.77
2018-02-09T03:59:33.188Z,31.92
2018-02-09T04:02:00.736Z,33.60
2018-02-09T04:04:28.213Z,32.22
2018-02-09T04:06:56.454Z,33.28
2018-02-09T04:09:23.949Z,29.12
2018-02-09T04:11:52.206Z,30.23
2018-02-09T04:14:19.689Z,31.60
2018-02-09T04:16:47.931Z,31.37
2018-02-09T04:19:15.501Z,34.17
2018-02-09T04:21:43.053Z,32.35
2018-02-09T04:24:10.524Z,33.83
2018-02-09T04:26:38.752Z,31.27
2018-02-09T04:29:06.238Z,32.10
2018-02-09T04:31:33.721Z,34.25
2018-02-09T04:34:02.031Z,30.55
2018-02-09T04:36:29.505Z,32.28
2018-02-09T04:38:56.976Z,31.67
2018-02-09T04:41:24.550Z,32.08
2018-02-09T04:43:52.053Z,32.75
2018-02-09T04:46:19.536Z,34.80
2018-02-09T04:48:47.925Z,34.38
2018-02-09T04:51:15.497Z,31.83
2018-02-09T04:53:42.973Z,33.13
2018-02-09T04:56:11.224Z,33.63
2018-02-09T04:58:38.700Z,35.40
2018-02-09T05:01:06.176Z,32.42
2018-02-09T05:03:34.436Z,33.03
2018-02-09T05:06:02.677Z,33.72
2018-02-09T05:08:30.161Z,35.20
2018-02-09T05:10:57.724Z,36.50
2018-02-09T05:13:25.225Z,35.33
2018-02-09T05:15:52.734Z,34.15
2018-02-09T05:18:20.287Z,35.67
2018-02-09T05:20:47.900Z,35.60
2018-02-09T05:23:15.404Z,37.80
2018-02-09T05:25:42.977Z,36.53
2018-02-09T05:28:10.466Z,36.38
2018-02-09T05:30:37.929Z,36.10
2018-02-09T05:33:05.492Z,36.65
2018-02-09T05:35:33.001Z,35.70
2018-02-09T05:38:00.556Z,38.25
2018-02-09T05:40:28.126Z,36.83
2018-02-09T05:42:56.397Z,40.00
2018-02-09T05:45:23.873Z,37.40
2018-02-09T05:47:52.124Z,38.80
2018-02-09T05:50:19.598Z,38.50
2018-02-09T05:52:47.078Z,38.40
2018-02-09T05:55:14.588Z,38.55
2018-02-09T05:57:42.069Z,35.28
2018-02-09T06:00:10.314Z,37.80
2018-02-09T06:02:37.793Z,40.33
2018-02-09T06:05:05.317Z,39.17
2018-02-09T06:07:32.794Z,37.50
2018-02-09T06:10:00.280Z,41.60
2018-02-09T06:12:28.541Z,39.53
2018-02-09T06:14:56.043Z,40.38
2018-02-09T06:17:23.602Z,38.83
2018-02-09T06:19:51.156Z,40.53
2018-02-09T06:22:18.634Z,42.33
2018-02-09T06:24:46.123Z,39.25
2018-02-09T06:27:13.694Z,40.70
2018-02-09T06:29:42.247Z,39.95
2018-02-09T06:32:09.729Z,42.15
2018-02-09T06:34:37.985Z,43.60
2018-02-09T06:37:05.468Z,40.97
2018-02-09T06:39:33.709Z,42.38
2018-02-09T06:42:01.181Z,43.50
2018-02-09T06:44:28.695Z,40.35
2018-02-09T06:46:56.170Z,41.72
2018-02-09T06:49:23.668Z,41.08
2018-02-09T06:51:51.918Z,39.70
2018-02-09T06:54:19.400Z,38.88
2018-02-09T06:56:47.766Z,40.08
2018-02-09T06:59:15.330Z,42.53
2018-02-09T07:01:42.884Z,40.40
2018-02-09T07:04:10.391Z,39.63
2018-02-09T07:06:37.903Z,41.85
2018-02-09T07:09:06.142Z,39.33
2018-02-09T07:11:33.634Z,38.80
2018-02-09T07:14:01.102Z,42.15
2018-02-09T07:16:29.473Z,42.40
2018-02-09T07:18:57.020Z,39.72
2018-02-09T07:21:24.502Z,40.53
2018-02-09T07:23:52.764Z,38.95
2018-02-09T07:26:20.369Z,40.47
2018-02-09T07:28:47.840Z,39.35
2018-02-09T07:31:15.341Z,42.47
2018-02-09T07:33:42.814Z,45.22
2018-02-09T07:36:10.358Z,40.97
2018-02-09T07:38:37.906Z,43.78
2018-02-09T07:41:05.374Z,39.38
2018-02-09T07:43:33.646Z,42.50
2018-02-09T07:46:01.193Z,39.90
2018-02-09T07:48:28.672Z,38.03
2018-02-09T07:50:56.915Z,42.38
2018-02-09T07:53:24.413Z,39.60
2018-02-09T07:55:52.648Z,42.92
2018-02-09T07:58:20.232Z,41.70
2018-02-09T08:00:48.475Z,41.60
2018-02-09T08:03:15.940Z,38.35
2018-02-09T08:05:43.404Z,39.28
2018-02-09T08:08:10.968Z,36.75
2018-02-09T08:10:38.529Z,36.47
2018-02-09T08:13:06.008Z,38.10
2018-02-09T08:15:34.289Z,39.00
2018-02-09T08:18:01.836Z,40.10
2018-02-09T08:20:30.104Z,40.33
2018-02-09T08:22:57.568Z,41.50
2018-02-09T08:25:25.817Z,39.58
2018-02-09T08:27:53.285Z,40.17
2018-02-09T08:30:20.761Z,39.92
2018-02-09T08:32:48.402Z,39.13
2018-02-09T08:35:15.889Z,39.92
2018-02-09T08:37:44.128Z,40.38
2018-02-09T08:40:11.795Z,37.35
2018-02-09T08:42:39.265Z,35.42
2018-02-09T08:45:06.914Z,35.08
2018-02-09T08:47:34.473Z,37.33
2018-02-09T08:50:01.941Z,36.90
2018-02-09T08:52:29.416Z,36.88
2018-02-09T08:54:57.667Z,37.00
2018-02-09T08:57:25.145Z,35.95
2018-02-09T08:59:53.372Z,37.97
2018-02-09T09:02:20.849Z,37.08
2018-02-09T09:04:48.317Z,36.58
2018-02-09T09:07:15.883Z,36.42
2018-02-09T09:09:44.121Z,38.60
2018-02-09T09:12:11.625Z,36.40
2018-02-09T09:14:39.868Z,40.88
2018-02-09T09:17:07.345Z,39.05
2018-02-09T09:19:35.577Z,40.28
2018-02-09T09:22:03.189Z,41.15
2018-02-09T09:24:31.845Z,41.55
2018-02-09T09:27:00.821Z,44.22
2018-02-09T09:29:28.292Z,41.90
2018-02-09T09:31:55.768Z,42.92
2018-02-09T09:34:24.009Z,39.38
2018-02-09T09:36:51.490Z,41.08
2018-02-09T09:39:18.995Z,42.05
2018-02-09T09:41:46.458Z,39.45
2018-02-09T09:44:13.925Z,39.45
2018-02-09T09:46:41.420Z,41.95
2018-02-09T09:49:08.909Z,42.35
2018-02-09T09:51:36.388Z,41.45
2018-02-09T09:54:03.861Z,41.67
2018-02-09T09:56:31.373Z,41.67
2018-02-09T09:58:58.857Z,41.13
2018-02-09T10:01:31.275Z,39.13
2018-02-09T10:03:58.761Z,39.40
2018-02-09T10:06:27.010Z,41.58
2018-02-09T10:08:54.476Z,40.72
2018-02-09T10:11:22.705Z,41.20
2018-02-09T10:13:50.241Z,38.90
2018-02-09T10:16:17.717Z,39.60
2018-02-09T10:18:45.199Z,37.75
2018-02-09T10:21:12.721Z,38.58
2018-02-09T10:23:40.184Z,37.53
2018-02-09T10:26:07.644Z,39.15
2018-02-09T10:28:35.144Z,40.78
2018-02-09T10:31:02.617Z,38.50
2018-02-09T10:33:30.925Z,38.97
2018-02-09T10:35:58.414Z,40.22
2018-02-09T10:38:25.878Z,41.70
2018-02-09T10:40:53.340Z,36.25
2018-02-09T10:43:20.905Z,42.47
2018-02-09T10:45:49.147Z,40.75
2018-02-09T10:48:16.628Z,39.72
2018-02-09T10:50:44.100Z,37.50
2018-02-09T10:53:12.342Z,37.75
2018-02-09T10:55:39.815Z,39.00
2018-02-09T10:58:07.324Z,38.33
2018-02-09T11:00:40.542Z,35.88
2018-02-09T11:03:08.009Z,33.40
2018-02-09T11:05:35.468Z,35.85
2018-02-09T11:08:02.928Z,37.00
2018-02-09T11:10:33.453Z,32.58
2018-02-09T11:13:15.707Z,33.25
2018-02-09T11:15:43.185Z,30.12
2018-02-09T11:18:10.795Z,32.97
2018-02-09T11:20:38.262Z,30.65
2018-02-09T11:23:06.537Z,31.45
2018-02-09T11:25:34.785Z,30.27
2018-02-09T11:28:02.334Z,28.92
2018-02-09T11:30:29.924Z,29.12
2018-02-09T11:32:57.442Z,28.40
2018-02-09T11:35:24.941Z,27.98
2018-02-09T11:37:52.412Z,28.90
2018-02-09T11:40:20.673Z,28.83
2018-02-09T11:42:48.141Z,29.12
2018-02-09T11:45:16.383Z,28.50
2018-02-09T11:47:43.878Z,30.08
2018-02-09T11:50:12.108Z,28.55
2018-02-09T11:52:39.572Z,30.10
2018-02-09T11:55:07.049Z,30.58
2018-02-09T11:57:34.604Z,28.02
2018-02-09T12:00:02.266Z,29.63
2018-02-09T12:02:29.745Z,31.37
2018-02-09T12:04:58.007Z,30.55
2018-02-09T12:07:26.236Z,31.00
2018-02-09T12:09:53.739Z,29.85
2018-02-09T12:12:21.289Z,31.35
2018-02-09T12:14:48.849Z,30.55
2018-02-09T12:17:16.317Z,32.00
2018-02-09T12:19:44.579Z,29.05
2018-02-09T12:22:12.049Z,32.38
2018-02-09T12:24:40.302Z,31.48
2018-02-09T12:27:07.766Z,33.28
2018-02-09T12:29:35.381Z,31.60
2018-02-09T12:32:02.894Z,33.05
2018-02-09T12:34:30.549Z,33.83
2018-02-09T12:36:58.109Z,32.00
2018-02-09T12:39:25.670Z,29.00
2018-02-09T12:41:53.172Z,30.40
2018-02-09T12:44:20.680Z,31.87
2018-02-09T12:46:48.204Z,31.92
2018-02-09T12:49:15.697Z,32.25
2018-02-09T12:51:43.266Z,31.65
2018-02-09T12:54:11.513Z,31.08
2018-02-09T12:56:38.989Z,32.63
2018-02-09T12:59:06.464Z,34.33
2018-02-09T13:01:34.709Z,32.28
2018-02-09T13:04:02.196Z,31.73
2018-02-09T13:06:30.463Z,32.95
2018-02-09T13:08:58.700Z,31.83
2018-02-09T13:11:26.180Z,32.53
2018-02-09T13:13:53.658Z,33.88
2018-02-09T13:16:21.917Z,32.72
2018-02-09T13:18:49.402Z,33.08
2018-02-09T13:21:16.937Z,34.95
2018-02-09T13:23:56.472Z,33.35
2018-02-09T13:26:23.942Z,34.50
2018-02-09T13:29:02.723Z,33.03
2018-02-09T13:31:30.325Z,32.70
2018-02-09T13:33:57.874Z,33.95
2018-02-09T13:36:37.169Z,31.33
2018-02-09T13:39:04.656Z,34.03
2018-02-09T13:41:32.213Z,32.58
2018-02-09T13:43:59.692Z,37.30
2018-02-09T13:46:27.939Z,33.00
2018-02-09T13:48:55.435Z,30.60
2018-02-09T13:51:23.736Z,31.45
2018-02-09T13:53:51.241Z,34.22
2018-02-09T13:56:19.433Z,32.47
2018-02-09T13:58:47.674Z,30.45
2018-02-09T14:01:15.137Z,29.63
2018-02-09T14:03:42.677Z,31.80
2018-02-09T14:06:10.137Z,31.87
2018-02-09T14:08:37.612Z,30.67
2018-02-09T14:11:05.130Z,29.98
2018-02-09T14:13:32.601Z,32.65
2018-02-09T14:16:00.069Z,30.42
2018-02-09T14:18:27.541Z,31.27
2018-02-09T14:20:55.021Z,31.15
2018-02-09T14:23:23.306Z,30.95
2018-02-09T14:25:51.538Z,28.83
2018-02-09T14:28:19.013Z,32.17
2018-02-09T14:30:46.492Z,30.80
2018-02-09T14:33:14.790Z,31.73
2018-02-09T14:35:42.268Z,29.87
2018-02-09T14:38:09.736Z,31.08
2018-02-09T14:40:37.197Z,31.00
2018-02-09T14:43:04.707Z,31.70
2018-02-09T14:45:32.173Z,31.58
2018-02-09T14:47:59.641Z,31.27
2018-02-09T14:50:27.249Z,30.52
2018-02-09T14:52:54.734Z,30.77
2018-02-09T14:55:22.314Z,30.67
2018-02-09T14:57:49.797Z,31.02
2018-02-09T15:00:17.278Z,29.75
2018-02-09T15:02:44.837Z,30.88
2018-02-09T15:05:12.322Z,31.58
2018-02-09T15:07:40.565Z,30.90
2018-02-09T15:10:08.037Z,32.53
2018-02-09T15:12:36.300Z,32.10
2018-02-09T15:15:03.873Z,30.75
2018-02-09T15:17:31.354Z,32.28
2018-02-09T15:19:58.825Z,33.58
2018-02-09T15:22:26.344Z,30.30
2018-02-09T15:24:54.600Z,33.55
2018-02-09T15:27:22.079Z,33.90
2018-02-09T15:29:50.321Z,30.77
2018-02-09T15:32:17.797Z,32.75
2018-02-09T15:34:50.941Z,33.33
2018-02-09T15:37:18.435Z,36.25
2018-02-09T15:39:45.913Z,33.92
2018-02-09T15:42:14.161Z,35.38
2018-02-09T15:44:41.684Z,33.42
2018-02-09T15:47:09.224Z,33.17
2018-02-09T15:49:36.696Z,35.55
2018-02-09T15:52:04.199Z,35.13
2018-02-09T15:54:32.166Z,36.65
2018-02-09T15:56:59.637Z,34.60
2018-02-09T15:59:27.195Z,34.63
2018-02-09T16:01:54.664Z,35.78
2018-02-09T16:04:22.914Z,35.38
2018-02-09T16:06:50.497Z,35.65
2018-02-09T16:09:17.972Z,37.20
2018-02-09T16:11:45.453Z,38.60
2018-02-09T16:14:12.965Z,37.90
2018-02-09T16:16:41.220Z,37.55
2018-02-09T16:19:08.783Z,35.78
2018-02-09T16:21:36.272Z,38.97
2018-02-09T16:24:04.501Z,39.90
2018-02-09T16:26:31.969Z,34.20
2018-02-09T16:28:59.538Z,37.20
2018-02-09T16:31:27.044Z,37.90
2018-02-09T16:33:54.509Z,37.38
2018-02-09T16:36:21.992Z,35.72
2018-02-09T16:38:49.467Z,37.00
2018-02-09T16:41:16.924Z,37.92
2018-02-09T16:43:44.416Z,39.08
2018-02-09T16:46:11.887Z,37.60
2018-02-09T16:48:39.348Z,37.08
2018-02-09T16:51:06.853Z,37.38
2018-02-09T16:53:34.325Z,36.90
2018-02-09T16:56:02.580Z,33.92
2018-02-09T16:58:30.059Z,37.50
2018-02-09T17:00:58.312Z,38.15
2018-02-09T17:03:25.915Z,36.90
2018-02-09T17:05:53.429Z,35.20
2018-02-09T17:08:20.941Z,38.50
2018-02-09T17:10:48.408Z,36.65
2018-02-09T17:13:15.905Z,37.10
2018-02-09T17:15:43.466Z,38.08
2018-02-09T17:18:11.713Z,37.90
2018-02-09T17:20:39.189Z,36.13
2018-02-09T17:23:06.665Z,37.00
2018-02-09T17:25:34.942Z,37.00
2018-02-09T17:28:03.202Z,39.55
2018-02-09T17:30:30.682Z,36.92
2018-02-09T17:33:04.928Z,37.08
2018-02-09T17:35:32.395Z,38.47
2018-02-09T17:37:59.881Z,38.28
2018-02-09T17:40:27.361Z,37.42
2018-02-09T17:42:55.617Z,37.00
2018-02-09T17:45:23.094Z,37.63
2018-02-09T17:47:51.329Z,38.30
2018-02-09T17:50:18.856Z,37.85
2018-02-09T17:52:46.326Z,38.50
2018-02-09T17:55:13.841Z,38.72
2018-02-09T17:57:42.121Z,37.35
2018-02-09T18:00:10.376Z,37.10
2018-02-09T18:02:37.853Z,38.20
2018-02-09T18:05:06.172Z,37.15
2018-02-09T18:07:33.619Z,36.00
2018-02-09T18:10:01.129Z,37.10
2018-02-09T18:12:29.385Z,38.03
2018-02-09T18:14:56.845Z,39.58
2018-02-09T18:17:28.897Z,39.22
2018-02-09T18:19:56.385Z,38.08
2018-02-09T18:22:23.868Z,36.08
2018-02-09T18:24:51.357Z,38.05
2018-02-09T18:27:18.862Z,39.65
2018-02-09T18:29:46.422Z,39.85
2018-02-09T18:32:13.897Z,39.97
2018-02-09T18:34:41.378Z,38.35
2018-02-09T18:37:08.993Z,36.40
2018-02-09T18:39:37.233Z,41.88
2018-02-09T18:42:04.773Z,37.63
2018-02-09T18:44:32.970Z,39.90
2018-02-09T18:47:00.506Z,40.85
2018-02-09T18:49:27.978Z,39.85
2018-02-09T18:51:55.496Z,38.65
2018-02-09T18:54:22.985Z,39.72
2018-02-09T18:56:50.521Z,36.67
2018-02-09T18:59:18.004Z,37.80
2018-02-09T19:01:45.509Z,39.10
2018-02-09T19:04:12.976Z,37.97
2018-02-09T19:06:41.245Z,40.05
2018-02-09T19:09:09.507Z,36.15
2018-02-09T19:11:36.976Z,38.00
2018-02-09T19:14:05.223Z,42.22
2018-02-09T19:16:32.766Z,36.47
2018-02-09T19:19:00.256Z,38.65
2018-02-09T19:21:29.302Z,40.53
2018-02-09T19:23:56.773Z,40.65
2018-02-09T19:26:24.267Z,38.28
2018-02-09T19:28:52.540Z,42.58
2018-02-09T19:31:20.114Z,41.42
2018-02-09T19:33:48.356Z,43.58
2018-02-09T19:36:15.860Z,40.33
2018-02-09T19:38:43.326Z,40.67
2018-02-09T19:41:10.824Z,39.97
2018-02-09T19:43:38.285Z,39.25
2018-02-09T19:46:05.760Z,40.53
2018-02-09T19:48:33.225Z,39.95
2018-02-09T19:51:00.713Z,40.35
2018-02-09T19:53:28.186Z,40.12
2018-02-09T19:55:55.649Z,41.33
2018-02-09T19:58:23.295Z,40.03
2018-02-09T20:00:50.801Z,40.70
2018-02-09T20:03:19.043Z,42.80
2018-02-09T20:05:46.545Z,41.10
2018-02-09T20:08:14.786Z,42.03
2018-02-09T20:10:42.265Z,41.72
2018-02-09T20:13:09.833Z,46.10
2018-02-09T20:15:37.431Z,40.70
2018-02-09T20:18:05.672Z,42.20
2018-02-09T20:20:33.136Z,40.25
2018-02-09T20:23:01.401Z,43.13
2018-02-09T20:25:28.877Z,43.53
2018-02-09T20:27:57.112Z,43.95
2018-02-09T20:30:24.594Z,43.05
2018-02-09T20:32:52.849Z,42.13
2018-02-09T20:35:20.338Z,44.17
2018-02-09T20:37:48.573Z,42.45
2018-02-09T20:40:16.041Z,41.90
2018-02-09T20:42:43.519Z,43.28
2018-02-09T20:45:11.776Z,40.10
2018-02-09T20:47:40.107Z,43.70
2018-02-09T20:50:07.675Z,44.38
2018-02-09T20:52:35.150Z,42.20
2018-02-09T20:55:02.678Z,45.03
2018-02-09T20:57:30.185Z,44.25
2018-02-09T20:59:58.582Z,41.63
2018-02-09T21:02:26.823Z,40.85
2018-02-09T21:04:54.350Z,43.75
2018-02-09T21:07:21.853Z,45.45
2018-02-09T21:09:49.326Z,41.53
2018-02-09T21:12:17.565Z,42.70
2018-02-09T21:14:45.042Z,43.83
2018-02-09T21:17:12.521Z,42.28
2018-02-09T21:19:40.782Z,41.67
2018-02-09T21:22:08.341Z,46.35
2018-02-09T21:24:35.888Z,43.00
2018-02-09T21:27:03.377Z,47.10
2018-02-09T21:29:31.632Z,48.13
2018-02-09T21:31:59.111Z,42.72
2018-02-09T21:34:26.636Z,43.65
2018-02-09T21:36:54.107Z,44.85
2018-02-09T21:39:21.683Z,45.83
2018-02-09T21:41:49.937Z,43.38
2018-02-09T21:44:17.497Z,42.33
2018-02-09T21:46:44.976Z,47.00
2018-02-09T21:49:13.235Z,42.35
2018-02-09T21:51:40.709Z,47.50
2018-02-09T21:54:08.983Z,44.08
2018-02-09T21:56:37.440Z,44.03
2018-02-09T21:59:04.956Z,45.92
2018-02-09T22:01:32.447Z,44.45
2018-02-09T22:04:00.019Z,46.85
2018-02-09T22:06:27.494Z,44.03
2018-02-09T22:08:55.760Z,47.40
2018-02-09T22:11:24.002Z,45.17
2018-02-09T22:13:51.477Z,47.33
2018-02-09T22:16:19.041Z,47.83
2018-02-09T22:18:46.605Z,44.90
2018-02-09T22:21:14.075Z,45.03
2018-02-09T22:23:42.341Z,45.15
2018-02-09T22:26:10.618Z,49.28
2018-02-09T22:28:38.885Z,46.45
2018-02-09T22:31:06.365Z,45.00
2018-02-09T22:33:34.618Z,49.03
2018-02-09T22:36:02.085Z,49.67
2018-02-09T22:38:30.330Z,47.20
2018-02-09T22:40:57.813Z,48.35
2018-02-09T22:43:25.409Z,49.45
2018-02-09T22:45:52.890Z,47.15
2018-02-09T22:48:20.349Z,48.50
2018-02-09T22:50:47.826Z,48.08
2018-02-09T22:53:15.291Z,46.25
2018-02-09T22:55:42.765Z,48.15
2018-02-09T22:58:12.958Z,49.90
2018-02-09T23:00:40.441Z,44.10
2018-02-09T23:03:08.681Z,47.25
2018-02-09T23:05:36.149Z,50.47
2018-02-09T23:08:03.817Z,46.37
2018-02-09T23:10:31.304Z,48.10
2018-02-09T23:12:58.796Z,47.67
2018-02-09T23:15:26.289Z,45.33
2018-02-09T23:17:53.900Z,45.35
2018-02-09T23:20:21.374Z,44.80
2018-02-09T23:22:48.854Z,47.35
2018-02-09T23:25:16.416Z,48.92
2018-02-09T23:27:44.655Z,47.75
2018-02-09T23:30:12.123Z,46.78
2018-02-09T23:32:39.677Z,49.20
2018-02-09T23:35:07.165Z,44.85
2018-02-09T23:37:34.731Z,50.50
2018-02-09T23:40:02.209Z,47.10
2018-02-09T23:42:30.455Z,44.55
2018-02-09T23:44:57.916Z,48.28
2018-02-09T23:47:26.170Z,44.85
2018-02-09T23:49:53.648Z,47.53
2018-02-09T23:52:21.213Z,45.75
2018-02-09T23:54:48.714Z,45.53
2018-02-09T23:57:16.185Z,47.47
2018-02-09T23:59:43.706Z,46.40
